Terminal Aerodrome Forecast
Issued by NWS Sterling, VA

Home | Current Version | Previous Version | Text Only | Print | Product List | Glossary On
Versions: 1 2 3 4 5 6 7 8 9 10 11 12 13 14 15 16 17 18 19 20 21 22 23 24 25
000
FTUS41 KLWX 031732
TAFBWI
TAF
KBWI 031732Z 0318/0424 28004G16KT P6SM FEW060
     FM032100 13006KT P6SM FEW060
     FM040300 VRB03KT P6SM FEW250
     FM041400 23005KT P6SM FEW050
     FM041800 21009KT P6SM SCT050=

USA.gov is the U.S. government's official web portal to all federal, state and local government web resources and services.